Time;durP1;ratioP1;P1;durP2;ratioP2;P2;SDS_P1;SDS_P2;PMS_P1;PMS_P2;Temp;Humidity;BMP_temperature;BMP_pressure;BME280_temperature;BME280_humidity;BME280_pressure;Samples;Min_cycle;Max_cycle;Signal;HPM_P1;HPM_P2
2023/03/20 00:00:42;;;;;;;3.17;1.40;;;11.40;99.90;;;;;;5051607;28;20029;-39
2023/03/20 00:03:11;;;;;;;2.50;1.45;;;11.40;99.90;;;;;;5052127;28;20033;-39
2023/03/20 00:05:38;;;;;;;1.50;1.13;;;11.40;99.90;;;;;;5051638;28;20032;-37
2023/03/20 00:08:04;;;;;;;2.22;1.55;;;11.40;99.90;;;;;;5052279;28;20021;-36
2023/03/20 00:10:44;;;;;;;1.50;1.30;;;11.40;99.90;;;;;;5053021;28;20021;-36
2023/03/20 00:13:26;;;;;;;1.60;1.20;;;11.30;99.90;;;;;;5053127;28;20032;-35
2023/03/20 00:15:52;;;;;;;1.52;1.15;;;11.30;99.90;;;;;;5052115;28;20029;-39
2023/03/20 00:18:21;;;;;;;3.67;1.55;;;11.30;99.90;;;;;;5052607;28;20029;-35
2023/03/20 00:20:49;;;;;;;1.63;1.33;;;11.40;99.90;;;;;;5052219;28;20560;-36
2023/03/20 00:23:15;;;;;;;2.90;1.25;;;11.30;99.90;;;;;;5051750;28;20096;-36
2023/03/20 00:25:43;;;;;;;2.78;1.38;;;11.40;99.90;;;;;;5054199;28;20442;-35
2023/03/20 00:28:41;;;;;;;1.83;1.10;;;11.40;99.90;;;;;;5056555;28;20401;-35
2023/03/20 00:31:29;;;;;;;1.40;1.00;;;11.40;99.90;;;;;;5055012;28;20033;-35
2023/03/20 00:33:57;;;;;;;1.52;1.20;;;11.40;99.90;;;;;;5056116;28;20031;-39
2023/03/20 00:36:23;;;;;;;1.80;1.10;;;11.40;99.90;;;;;;5055886;28;20162;-38
2023/03/20 00:38:50;;;;;;;1.27;1.17;;;11.40;99.90;;;;;;5055966;28;20021;-35
2023/03/20 00:41:30;;;;;;;1.83;1.48;;;11.30;99.90;;;;;;5054999;28;20040;-35
2023/03/20 00:44:00;;;;;;;2.90;1.30;;;11.30;99.90;;;;;;5055129;28;20307;-38
2023/03/20 00:46:26;;;;;;;1.55;1.15;;;11.30;99.90;;;;;;5056267;28;20491;-35
2023/03/20 00:48:53;;;;;;;1.55;1.30;;;11.40;99.90;;;;;;5056753;28;20029;-38
2023/03/20 00:51:19;;;;;;;1.58;1.20;;;11.40;99.90;;;;;;5056163;28;20024;-39
2023/03/20 00:53:44;;;;;;;2.17;1.42;;;11.40;99.90;;;;;;5056267;28;20082;-35
2023/03/20 00:56:40;;;;;;;2.15;1.25;;;11.40;99.90;;;;;;5055267;28;20441;-38
2023/03/20 00:59:13;;;;;;;2.20;1.10;;;11.40;99.90;;;;;;5056625;28;20522;-35
2023/03/20 01:01:39;;;;;;;2.10;1.20;;;11.40;99.90;;;;;;5054904;28;20487;-38
2023/03/20 01:04:13;;;;;;;3.05;1.13;;;11.40;99.90;;;;;;5055830;28;20044;-36
2023/03/20 01:06:38;;;;;;;1.50;1.05;;;11.40;99.90;;;;;;5054392;28;20095;-38
2023/03/20 01:09:04;;;;;;;2.13;1.40;;;11.40;99.90;;;;;;5054122;28;20029;-40
2023/03/20 01:11:30;;;;;;;1.65;1.17;;;11.40;99.90;;;;;;5054117;28;20033;-38
2023/03/20 01:13:56;;;;;;;1.70;1.13;;;11.40;99.90;;;;;;5054613;28;20029;-36
2023/03/20 01:16:24;;;;;;;1.67;1.20;;;11.40;99.90;;;;;;5054728;28;20071;-38
2023/03/20 01:18:50;;;;;;;2.03;1.40;;;11.40;99.90;;;;;;5055204;28;20024;-38
2023/03/20 01:21:17;;;;;;;1.30;1.05;;;11.40;99.90;;;;;;5055776;28;20021;-37
2023/03/20 01:23:43;;;;;;;1.40;1.00;;;11.40;99.90;;;;;;5055148;28;20028;-38
2023/03/20 01:26:46;;;;;;;1.77;1.05;;;11.40;99.90;;;;;;5054916;28;20513;-35
2023/03/20 01:29:24;;;;;;;1.77;1.10;;;11.30;99.90;;;;;;5055773;28;20107;-35
2023/03/20 01:31:50;;;;;;;1.40;1.17;;;11.40;99.90;;;;;;5054316;28;20083;-39
2023/03/20 01:34:16;;;;;;;1.50;0.93;;;11.40;99.90;;;;;;5053509;28;20029;-38
2023/03/20 01:36:52;;;;;;;1.77;0.95;;;11.40;99.90;;;;;;5054202;28;20100;-35
2023/03/20 01:39:20;;;;;;;1.55;1.00;;;11.40;99.90;;;;;;5054029;28;20021;-35
2023/03/20 01:41:47;;;;;;;1.17;0.90;;;11.40;99.90;;;;;;5054277;28;20029;-35
2023/03/20 01:44:31;;;;;;;1.45;0.85;;;11.40;99.90;;;;;;5053992;28;20021;-36
2023/03/20 01:46:57;;;;;;;1.48;0.90;;;11.40;99.90;;;;;;5054114;28;20098;-38
2023/03/20 01:49:23;;;;;;;1.92;1.00;;;11.40;99.90;;;;;;5054037;28;20074;-37
2023/03/20 01:51:50;;;;;;;1.10;0.80;;;11.40;99.90;;;;;;5054703;28;20104;-39
2023/03/20 01:54:18;;;;;;;1.50;0.80;;;11.40;99.90;;;;;;5054947;28;20033;-39
2023/03/20 01:57:02;;;;;;;0.93;0.80;;;11.40;99.90;;;;;;5054813;28;20028;-35
2023/03/20 01:59:50;;;;;;;1.10;0.80;;;11.40;99.90;;;;;;5054301;28;20025;-38
2023/03/20 02:02:29;;;;;;;1.10;0.80;;;11.30;99.90;;;;;;5053977;28;20044;-35
2023/03/20 02:05:00;;;;;;;1.33;0.80;;;11.40;99.90;;;;;;5053791;28;20086;-40
2023/03/20 02:07:26;;;;;;;1.67;0.82;;;11.40;99.90;;;;;;5054044;28;20032;-38
2023/03/20 02:09:52;;;;;;;2.80;1.08;;;11.30;99.90;;;;;;5054724;28;20016;-39
2023/03/20 02:12:19;;;;;;;1.38;0.93;;;11.40;99.90;;;;;;5054930;28;20101;-39
2023/03/20 02:14:45;;;;;;;1.30;0.90;;;11.30;99.90;;;;;;5054579;28;20051;-38
2023/03/20 02:17:12;;;;;;;1.25;0.90;;;11.40;99.90;;;;;;5053792;28;20032;-38
2023/03/20 02:19:57;;;;;;;1.10;0.85;;;11.30;99.90;;;;;;5054271;28;20122;-36
2023/03/20 02:22:34;;;;;;;1.23;0.93;;;11.30;99.90;;;;;;5053633;28;20032;-37
2023/03/20 02:25:14;;;;;;;1.25;0.98;;;11.30;99.90;;;;;;5054689;28;20025;-35
2023/03/20 02:28:01;;;;;;;2.00;1.00;;;11.30;99.90;;;;;;5053320;28;20135;-39
2023/03/20 02:30:36;;;;;;;1.80;1.17;;;11.30;99.90;;;;;;5052913;28;20056;-36
2023/03/20 02:33:16;;;;;;;3.63;0.85;;;11.30;99.90;;;;;;5052529;28;20372;-35
2023/03/20 02:36:00;;;;;;;1.10;0.80;;;11.30;99.90;;;;;;5053638;28;20079;-37
2023/03/20 02:38:47;;;;;;;1.30;0.90;;;11.30;99.90;;;;;;5053856;28;20056;-35
2023/03/20 02:41:33;;;;;;;1.60;1.30;;;11.30;99.90;;;;;;5054249;28;20044;-39
2023/03/20 02:44:23;;;;;;;1.67;1.17;;;11.30;99.90;;;;;;5053192;28;20074;-35
2023/03/20 02:47:12;;;;;;;1.33;1.05;;;11.30;99.90;;;;;;5052340;28;20028;-38
2023/03/20 02:50:01;;;;;;;1.30;0.93;;;11.30;99.90;;;;;;5052406;28;20025;-36
2023/03/20 02:52:52;;;;;;;1.23;0.60;;;11.30;99.90;;;;;;5053124;28;20028;-35
2023/03/20 02:55:55;;;;;;;2.20;0.80;;;11.30;99.90;;;;;;5052185;28;20495;-35
2023/03/20 02:58:37;;;;;;;1.88;0.70;;;11.30;99.90;;;;;;5043359;28;20094;-36
2023/03/20 03:01:30;;;;;;;0.98;0.70;;;11.30;99.90;;;;;;5052821;28;20398;-38
2023/03/20 03:04:01;;;;;;;1.40;0.82;;;11.30;99.90;;;;;;5051950;28;20025;-37
2023/03/20 03:06:33;;;;;;;0.77;0.60;;;11.30;99.90;;;;;;5053683;28;20502;-36
2023/03/20 03:09:04;;;;;;;0.80;0.80;;;11.30;99.90;;;;;;5053693;28;20025;-35
2023/03/20 03:11:35;;;;;;;0.90;0.80;;;11.30;99.90;;;;;;5052918;28;20124;-37
2023/03/20 03:14:03;;;;;;;1.20;0.77;;;11.30;99.90;;;;;;5052779;28;20446;-37
2023/03/20 03:16:34;;;;;;;0.77;0.60;;;11.30;99.90;;;;;;5052700;28;20028;-35
2023/03/20 03:19:07;;;;;;;1.13;0.80;;;11.30;99.90;;;;;;5053407;28;20055;-35
2023/03/20 03:21:35;;;;;;;0.63;0.60;;;11.30;99.90;;;;;;5053859;28;20068;-35
2023/03/20 03:24:02;;;;;;;1.42;0.68;;;11.30;99.90;;;;;;5052677;28;20033;-36
2023/03/20 03:26:33;;;;;;;0.82;0.70;;;11.30;99.90;;;;;;5052556;28;20020;-38
2023/03/20 03:29:02;;;;;;;0.70;0.70;;;11.30;99.90;;;;;;5051873;28;20040;-35
2023/03/20 03:31:29;;;;;;;0.95;0.68;;;11.30;99.90;;;;;;5052771;28;20025;-40
2023/03/20 03:33:57;;;;;;;1.25;0.80;;;11.30;99.90;;;;;;5052991;28;20481;-38
2023/03/20 03:36:44;;;;;;;1.00;0.68;;;11.30;99.90;;;;;;5051949;28;20109;-37
2023/03/20 03:39:24;;;;;;;1.27;0.77;;;11.30;99.90;;;;;;5052983;28;20028;-39
2023/03/20 03:41:56;;;;;;;1.02;0.70;;;11.30;99.90;;;;;;5052567;28;20488;-35
2023/03/20 03:44:35;;;;;;;1.08;0.75;;;11.30;99.90;;;;;;5052350;28;20467;-40
2023/03/20 03:47:07;;;;;;;1.42;0.60;;;11.30;99.90;;;;;;5053044;28;20045;-35
2023/03/20 03:49:36;;;;;;;0.98;0.70;;;11.30;99.90;;;;;;5052387;28;20104;-36
2023/03/20 03:52:07;;;;;;;1.70;0.63;;;11.30;99.90;;;;;;5052003;28;20021;-38
2023/03/20 03:54:56;;;;;;;1.10;0.70;;;11.30;99.90;;;;;;5051347;28;20025;-38
2023/03/20 03:57:32;;;;;;;0.90;0.60;;;11.20;99.90;;;;;;5051019;28;20021;-37
2023/03/20 04:00:02;;;;;;;0.88;0.65;;;11.30;99.90;;;;;;5049662;28;20028;-37
2023/03/20 04:02:28;;;;;;;1.92;0.75;;;11.30;99.90;;;;;;5051048;28;20132;-38
2023/03/20 04:04:55;;;;;;;2.17;0.70;;;11.30;99.90;;;;;;5051181;28;20104;-37
2023/03/20 04:07:20;;;;;;;1.63;0.77;;;11.30;99.90;;;;;;5050935;28;20025;-38
2023/03/20 04:09:46;;;;;;;0.50;0.50;;;11.20;99.90;;;;;;5051617;28;20086;-38
2023/03/20 04:12:36;;;;;;;0.80;0.68;;;11.30;99.90;;;;;;5051339;28;20514;-38
2023/03/20 04:15:03;;;;;;;0.95;0.52;;;11.20;99.90;;;;;;5051167;28;20028;-38
2023/03/20 04:17:29;;;;;;;1.60;0.60;;;11.20;99.90;;;;;;5050835;28;20021;-38
2023/03/20 04:19:55;;;;;;;0.82;0.60;;;11.30;99.90;;;;;;5051045;28;20021;-38
2023/03/20 04:22:21;;;;;;;0.57;0.55;;;11.20;99.90;;;;;;5050887;28;20029;-37
2023/03/20 04:24:46;;;;;;;1.27;0.52;;;11.30;99.90;;;;;;5051038;28;20091;-38
2023/03/20 04:27:12;;;;;;;0.68;0.52;;;11.30;99.90;;;;;;5050762;28;20505;-40
2023/03/20 04:29:38;;;;;;;1.08;0.60;;;11.20;99.90;;;;;;5051098;28;20025;-38
2023/03/20 04:32:03;;;;;;;1.10;0.60;;;11.20;99.90;;;;;;5050787;28;20372;-38
2023/03/20 04:34:29;;;;;;;1.27;0.55;;;11.20;99.90;;;;;;5050779;28;20025;-38
2023/03/20 04:36:55;;;;;;;0.80;0.50;;;11.20;99.90;;;;;;5050652;28;20017;-38
2023/03/20 04:39:21;;;;;;;1.05;0.60;;;11.30;99.90;;;;;;5051073;28;20028;-38
2023/03/20 04:41:46;;;;;;;0.60;0.50;;;11.30;99.90;;;;;;5050821;28;20395;-38
2023/03/20 04:44:12;;;;;;;1.63;0.50;;;11.20;99.90;;;;;;5050753;28;20021;-38
2023/03/20 04:46:38;;;;;;;0.80;0.60;;;11.30;99.90;;;;;;5050514;28;20029;-37
2023/03/20 04:49:04;;;;;;;0.57;0.50;;;11.20;99.90;;;;;;5050747;28;20036;-38
2023/03/20 04:51:29;;;;;;;0.77;0.52;;;11.20;99.90;;;;;;5050458;28;20481;-38
2023/03/20 04:53:55;;;;;;;1.02;0.70;;;11.20;99.90;;;;;;5050891;28;20024;-39
2023/03/20 04:56:21;;;;;;;0.80;0.50;;;11.20;99.90;;;;;;5050593;28;20021;-35
2023/03/20 04:58:46;;;;;;;0.80;0.60;;;11.20;99.90;;;;;;5051029;28;20079;-36
2023/03/20 05:01:13;;;;;;;3.33;0.63;;;11.20;99.90;;;;;;5051842;28;20402;-38
2023/03/20 05:03:38;;;;;;;1.88;0.65;;;11.20;99.90;;;;;;5051806;28;20040;-36
2023/03/20 05:06:04;;;;;;;0.60;0.50;;;11.20;99.90;;;;;;5052061;28;20026;-40
2023/03/20 05:08:30;;;;;;;0.82;0.50;;;11.20;99.90;;;;;;5050752;28;20029;-35
2023/03/20 05:10:56;;;;;;;1.17;0.45;;;11.20;99.90;;;;;;5051784;28;20048;-35
2023/03/20 05:13:21;;;;;;;1.05;0.50;;;11.20;99.90;;;;;;5055418;28;20021;-38
2023/03/20 05:15:47;;;;;;;1.05;0.60;;;11.20;99.90;;;;;;5053946;28;20522;-36
2023/03/20 05:18:13;;;;;;;1.00;0.80;;;11.20;99.90;;;;;;5054759;28;20021;-35
2023/03/20 05:20:38;;;;;;;1.23;0.70;;;11.20;99.90;;;;;;5055179;28;20310;-38
2023/03/20 05:23:04;;;;;;;1.17;0.68;;;11.20;99.90;;;;;;5055172;28;20033;-35
2023/03/20 05:25:30;;;;;;;0.90;0.50;;;11.20;99.90;;;;;;5054047;28;20391;-40
2023/03/20 05:27:55;;;;;;;1.13;0.68;;;11.20;99.90;;;;;;5053788;28;20446;-38
2023/03/20 05:30:21;;;;;;;0.80;0.60;;;11.20;99.90;;;;;;5053751;28;20032;-39
2023/03/20 05:32:51;;;;;;;1.08;0.80;;;11.20;99.90;;;;;;5054805;28;20060;-39
2023/03/20 05:35:17;;;;;;;1.65;0.82;;;11.20;99.90;;;;;;5054450;28;20049;-35
2023/03/20 05:37:43;;;;;;;1.00;0.80;;;11.20;99.90;;;;;;5055168;28;20017;-38
2023/03/20 05:40:13;;;;;;;0.73;0.63;;;11.20;99.90;;;;;;5054044;28;20515;-36
2023/03/20 05:42:38;;;;;;;0.80;0.60;;;11.20;99.90;;;;;;5054541;28;20032;-38
2023/03/20 05:45:05;;;;;;;2.10;1.30;;;11.20;99.90;;;;;;5054625;28;20033;-36
2023/03/20 05:47:30;;;;;;;7.18;1.25;;;11.10;99.90;;;;;;5054159;28;20031;-35
2023/03/20 05:49:56;;;;;;;2.05;1.13;;;11.10;99.90;;;;;;5054905;28;20398;-39
2023/03/20 05:52:22;;;;;;;1.42;1.05;;;11.00;99.90;;;;;;5056456;28;20033;-40
2023/03/20 05:54:48;;;;;;;2.10;1.30;;;11.00;99.90;;;;;;5055019;28;20408;-38
2023/03/20 05:57:14;;;;;;;3.35;1.20;;;11.00;99.90;;;;;;5054011;28;20430;-39
2023/03/20 05:59:40;;;;;;;2.97;1.65;;;11.00;99.90;;;;;;5053579;28;20387;-38
2023/03/20 06:02:06;;;;;;;3.22;1.60;;;11.00;99.90;;;;;;5053236;28;20463;-38
2023/03/20 06:04:33;;;;;;;2.15;1.50;;;10.90;99.90;;;;;;5053281;28;20049;-38
2023/03/20 06:06:59;;;;;;;2.72;1.33;;;10.90;99.90;;;;;;5052971;28;20021;-39
2023/03/20 06:09:25;;;;;;;2.05;1.30;;;10.90;99.90;;;;;;5053210;28;20025;-38
2023/03/20 06:11:51;;;;;;;1.67;1.00;;;10.90;99.90;;;;;;5053435;28;20049;-39
2023/03/20 06:14:16;;;;;;;2.53;1.20;;;10.90;99.90;;;;;;5053043;28;20091;-38
2023/03/20 06:16:42;;;;;;;1.38;1.10;;;10.90;99.90;;;;;;5053001;28;20025;-38
2023/03/20 06:19:08;;;;;;;1.55;0.90;;;10.90;99.90;;;;;;5052916;28;20025;-42
2023/03/20 06:21:33;;;;;;;1.40;1.30;;;10.90;99.90;;;;;;5052939;28;20055;-39
2023/03/20 06:23:59;;;;;;;1.65;0.98;;;10.90;99.90;;;;;;5052698;28;20024;-39
2023/03/20 06:26:25;;;;;;;1.58;1.10;;;10.90;99.90;;;;;;5052558;28;20483;-39
2023/03/20 06:28:51;;;;;;;1.40;0.98;;;10.90;99.90;;;;;;5053162;28;20025;-39
2023/03/20 06:31:16;;;;;;;1.60;1.10;;;10.90;99.90;;;;;;5052555;28;20067;-39
2023/03/20 06:33:43;;;;;;;1.67;1.10;;;10.90;99.90;;;;;;5052588;28;20037;-38
2023/03/20 06:36:09;;;;;;;2.78;0.80;;;11.00;99.90;;;;;;5052398;28;20021;-38
2023/03/20 06:38:34;;;;;;;1.30;0.68;;;11.00;99.90;;;;;;5052646;28;20017;-38
2023/03/20 06:41:00;;;;;;;1.90;1.00;;;11.00;99.90;;;;;;5052409;28;20028;-38
2023/03/20 06:43:26;;;;;;;1.25;0.90;;;11.00;99.90;;;;;;5052403;28;20254;-35
2023/03/20 06:45:52;;;;;;;1.67;0.98;;;10.90;99.90;;;;;;5052961;28;20017;-35
2023/03/20 06:48:20;;;;;;;1.85;0.90;;;10.90;99.90;;;;;;5052797;28;20463;-36
2023/03/20 06:50:47;;;;;;;1.35;0.80;;;10.90;99.90;;;;;;5052268;28;20017;-36
2023/03/20 06:53:13;;;;;;;1.98;1.00;;;11.00;99.90;;;;;;5052658;28;20075;-36
2023/03/20 06:55:39;;;;;;;1.65;0.98;;;11.00;99.90;;;;;;5053469;28;20025;-35
2023/03/20 06:58:05;;;;;;;1.58;0.88;;;11.00;99.90;;;;;;5052068;28;20029;-38
2023/03/20 07:00:31;;;;;;;2.28;0.90;;;11.00;99.90;;;;;;5053118;28;20112;-38
2023/03/20 07:02:57;;;;;;;1.73;0.90;;;10.90;99.90;;;;;;5054228;28;20046;-38
2023/03/20 07:05:23;;;;;;;1.40;1.05;;;11.00;99.90;;;;;;5053076;28;20103;-37
2023/03/20 07:07:48;;;;;;;0.90;0.80;;;11.00;99.90;;;;;;5052340;28;20033;-35
2023/03/20 07:10:14;;;;;;;1.30;1.00;;;11.00;99.90;;;;;;5052019;28;20036;-39
2023/03/20 07:12:40;;;;;;;1.60;0.82;;;11.00;99.90;;;;;;5053063;28;20024;-35
2023/03/20 07:15:06;;;;;;;0.93;0.77;;;11.00;99.90;;;;;;5053816;28;20083;-36
2023/03/20 07:17:31;;;;;;;1.58;1.00;;;11.00;99.90;;;;;;5052933;28;20021;-36
2023/03/20 07:19:57;;;;;;;0.75;0.60;;;11.00;99.90;;;;;;5051822;28;20154;-39
2023/03/20 07:22:26;;;;;;;1.63;0.90;;;11.00;99.90;;;;;;5052842;28;20029;-36
2023/03/20 07:24:51;;;;;;;0.90;0.73;;;11.00;99.90;;;;;;5051718;28;20036;-35
2023/03/20 07:27:17;;;;;;;0.98;0.80;;;11.00;99.90;;;;;;5052083;28;20100;-39
2023/03/20 07:29:43;;;;;;;1.30;0.85;;;11.10;99.90;;;;;;5051631;28;20072;-38
2023/03/20 07:32:10;;;;;;;1.00;0.65;;;11.00;99.90;;;;;;5051527;28;20519;-35
2023/03/20 07:34:36;;;;;;;1.35;0.93;;;11.00;99.90;;;;;;5052786;28;20025;-39
2023/03/20 07:37:02;;;;;;;0.63;0.63;;;11.10;99.90;;;;;;5053234;28;20031;-35
2023/03/20 07:39:28;;;;;;;1.38;0.88;;;11.10;99.90;;;;;;5053015;28;20025;-35
2023/03/20 07:41:53;;;;;;;1.75;0.85;;;11.10;99.90;;;;;;5052269;28;20029;-39
2023/03/20 07:44:19;;;;;;;1.75;0.95;;;11.10;99.90;;;;;;5051416;28;20079;-39
2023/03/20 07:46:48;;;;;;;2.05;0.90;;;11.10;99.90;;;;;;5051153;28;20095;-36
2023/03/20 07:49:17;;;;;;;1.25;0.88;;;11.10;99.90;;;;;;5051263;28;20031;-39
2023/03/20 07:51:43;;;;;;;2.75;1.02;;;11.00;99.90;;;;;;5051133;28;20491;-36
2023/03/20 07:54:08;;;;;;;1.85;1.10;;;11.00;99.90;;;;;;5051854;28;20449;-36
2023/03/20 07:56:34;;;;;;;1.70;0.90;;;11.10;99.90;;;;;;5051210;28;20056;-36
2023/03/20 07:59:00;;;;;;;2.72;0.77;;;11.10;99.90;;;;;;5053229;28;20469;-39
2023/03/20 08:01:25;;;;;;;1.10;0.80;;;11.10;99.90;;;;;;5052149;28;20120;-40
2023/03/20 08:03:51;;;;;;;1.20;0.80;;;11.10;99.90;;;;;;5052827;28;20479;-39
2023/03/20 08:06:17;;;;;;;1.30;0.80;;;11.10;99.90;;;;;;5052462;28;20029;-36
2023/03/20 08:08:43;;;;;;;1.25;0.80;;;11.10;99.90;;;;;;5051977;28;20376;-36
2023/03/20 08:11:10;;;;;;;0.60;0.60;;;11.10;99.90;;;;;;5052126;28;20507;-40
2023/03/20 08:13:36;;;;;;;1.13;0.80;;;11.10;99.90;;;;;;5052241;28;20017;-38
2023/03/20 08:16:02;;;;;;;0.85;0.73;;;11.10;99.90;;;;;;5051864;28;20114;-36
2023/03/20 08:18:28;;;;;;;0.70;0.60;;;11.10;99.90;;;;;;5051854;28;20442;-39
2023/03/20 08:20:54;;;;;;;1.00;0.75;;;11.20;99.90;;;;;;5051338;28;20032;-39
2023/03/20 08:23:20;;;;;;;1.08;0.60;;;11.20;99.90;;;;;;5051361;28;20025;-39
2023/03/20 08:25:50;;;;;;;0.65;0.52;;;11.20;99.90;;;;;;5052143;28;20071;-40
2023/03/20 08:28:16;;;;;;;0.90;0.63;;;11.20;99.90;;;;;;5053133;28;20074;-35
2023/03/20 08:30:42;;;;;;;1.73;0.70;;;11.20;99.90;;;;;;5051769;28;20029;-38
2023/03/20 08:33:08;;;;;;;1.15;0.60;;;11.20;99.90;;;;;;5051189;28;20056;-35
2023/03/20 08:35:34;;;;;;;0.95;0.70;;;11.20;99.90;;;;;;5051456;28;20033;-39
2023/03/20 08:38:00;;;;;;;1.52;0.60;;;11.20;99.90;;;;;;5052202;28;20085;-36
2023/03/20 08:40:26;;;;;;;3.10;0.73;;;11.20;99.90;;;;;;5051701;28;20025;-36
2023/03/20 08:42:52;;;;;;;1.25;0.70;;;11.20;99.90;;;;;;5050690;28;20031;-39
2023/03/20 08:45:18;;;;;;;1.02;0.60;;;11.20;99.90;;;;;;5051272;28;20550;-40
2023/03/20 08:47:47;;;;;;;2.67;0.73;;;11.20;99.90;;;;;;5054187;28;20066;-40
2023/03/20 08:50:13;;;;;;;1.55;0.55;;;11.20;99.90;;;;;;5054658;28;20021;-36
2023/03/20 08:52:42;;;;;;;1.05;0.70;;;11.20;99.90;;;;;;5055545;28;20077;-38
2023/03/20 08:55:09;;;;;;;1.50;0.60;;;11.30;99.90;;;;;;5055099;28;20471;-40
2023/03/20 08:57:36;;;;;;;1.60;0.70;;;11.30;99.90;;;;;;5054147;28;20029;-37
2023/03/20 09:00:04;;;;;;;0.93;0.70;;;11.20;99.90;;;;;;5054607;28;20099;-39
2023/03/20 09:02:31;;;;;;;1.23;0.55;;;11.30;99.90;;;;;;5054751;28;20040;-39
2023/03/20 09:04:57;;;;;;;0.80;0.60;;;11.20;99.90;;;;;;5055466;28;20033;-39
2023/03/20 09:07:23;;;;;;;1.13;0.70;;;11.20;99.90;;;;;;5054417;28;20512;-39
2023/03/20 09:09:48;;;;;;;1.00;0.57;;;11.20;99.90;;;;;;5054851;28;20095;-36
2023/03/20 09:12:14;;;;;;;0.73;0.60;;;11.20;99.90;;;;;;5055253;28;20049;-36
2023/03/20 09:14:40;;;;;;;0.80;0.60;;;11.20;99.90;;;;;;5055218;28;20095;-38
2023/03/20 09:17:06;;;;;;;1.02;0.68;;;11.20;99.90;;;;;;5055013;28;20029;-39
2023/03/20 09:19:32;;;;;;;0.77;0.50;;;11.20;99.90;;;;;;5054228;28;20505;-36
2023/03/20 09:21:59;;;;;;;0.95;0.70;;;11.20;99.90;;;;;;5055248;28;20075;-38
2023/03/20 09:24:24;;;;;;;1.70;0.90;;;11.20;99.90;;;;;;5054256;28;20045;-39
2023/03/20 09:26:51;;;;;;;0.90;0.60;;;11.30;99.90;;;;;;5054036;28;20063;-38
2023/03/20 09:29:16;;;;;;;1.00;0.50;;;11.20;99.90;;;;;;5055639;28;20025;-38
2023/03/20 09:31:42;;;;;;;0.88;0.63;;;11.20;99.90;;;;;;5054608;28;20037;-36
2023/03/20 09:34:07;;;;;;;0.90;0.70;;;11.20;99.90;;;;;;5054312;28;20490;-36
2023/03/20 09:36:34;;;;;;;0.80;0.52;;;11.30;99.90;;;;;;5054232;28;20025;-39
2023/03/20 09:39:00;;;;;;;1.55;0.80;;;11.30;99.90;;;;;;5055134;28;20096;-36
2023/03/20 09:41:36;;;;;;;1.20;0.80;;;11.30;99.90;;;;;;5053516;28;20514;-36
2023/03/20 09:44:26;;;;;;;1.55;0.70;;;11.30;99.90;;;;;;5053776;28;20029;-39
2023/03/20 09:47:02;;;;;;;0.75;0.60;;;11.30;99.90;;;;;;5054652;28;20087;-36
2023/03/20 09:49:39;;;;;;;0.90;0.70;;;11.30;99.90;;;;;;5055272;28;20063;-36
2023/03/20 09:52:31;;;;;;;0.93;0.60;;;11.30;99.90;;;;;;5055179;28;20098;-37
2023/03/20 09:55:06;;;;;;;0.90;0.63;;;11.30;99.90;;;;;;5054195;28;20017;-38
2023/03/20 09:57:44;;;;;;;1.25;0.70;;;11.30;99.90;;;;;;5054477;28;20021;-36
2023/03/20 10:00:26;;;;;;;1.00;0.70;;;11.30;99.90;;;;;;5054073;28;20031;-37
2023/03/20 10:03:10;;;;;;;1.73;0.70;;;11.30;99.90;;;;;;5053220;28;20033;-39
2023/03/20 10:05:43;;;;;;;1.20;0.90;;;11.30;99.90;;;;;;5054186;28;20028;-40
2023/03/20 10:08:16;;;;;;;0.70;0.60;;;11.30;99.90;;;;;;5055164;28;20052;-39
2023/03/20 10:10:56;;;;;;;1.00;0.63;;;11.30;99.90;;;;;;5054387;28;20521;-36
2023/03/20 10:13:34;;;;;;;1.23;0.70;;;11.40;99.90;;;;;;5052967;28;20033;-38
2023/03/20 10:16:23;;;;;;;0.73;0.60;;;11.40;99.90;;;;;;5052702;28;20057;-38
2023/03/20 10:19:00;;;;;;;1.52;0.70;;;11.40;99.90;;;;;;5054520;28;20031;-39
2023/03/20 10:21:43;;;;;;;2.08;0.60;;;11.40;99.90;;;;;;5054281;28;20117;-40
2023/03/20 10:24:21;;;;;;;1.05;0.70;;;11.40;99.90;;;;;;5053230;28;20071;-38
2023/03/20 10:26:51;;;;;;;0.95;0.70;;;11.40;99.90;;;;;;5053307;28;20498;-36
2023/03/20 10:29:47;;;;;;;0.80;0.55;;;11.40;99.90;;;;;;5052774;28;20032;-38
2023/03/20 10:32:54;;;;;;;0.93;0.70;;;11.40;99.90;;;;;;5055002;28;20028;-36
2023/03/20 10:35:26;;;;;;;0.73;0.60;;;11.50;99.90;;;;;;5030210;28;20022;-39
2023/03/20 10:38:05;;;;;;;1.35;0.52;;;11.50;99.90;;;;;;5050858;28;20043;-36
2023/03/20 10:40:34;;;;;;;1.02;0.65;;;11.50;99.90;;;;;;5054916;28;20036;-39
2023/03/20 10:43:25;;;;;;;0.95;0.57;;;11.50;99.90;;;;;;5054188;28;20096;-36
2023/03/20 10:45:58;;;;;;;0.70;0.52;;;11.60;99.90;;;;;;5053972;28;20065;-38
2023/03/20 10:48:44;;;;;;;0.93;0.55;;;11.60;99.90;;;;;;5053746;28;20500;-36
2023/03/20 10:51:18;;;;;;;0.82;0.60;;;11.60;99.90;;;;;;5053729;28;20025;-37
2023/03/20 10:53:58;;;;;;;0.80;0.55;;;11.60;99.90;;;;;;5052230;28;20115;-36
2023/03/20 10:56:35;;;;;;;0.73;0.60;;;11.60;99.90;;;;;;5054340;28;20112;-35
2023/03/20 10:59:23;;;;;;;1.25;0.57;;;11.50;99.90;;;;;;5052446;28;20478;-40
2023/03/20 11:01:51;;;;;;;1.38;0.50;;;11.60;99.90;;;;;;5053238;28;20041;-36
2023/03/20 11:04:17;;;;;;;1.35;0.70;;;11.60;99.90;;;;;;5053183;28;20120;-39
2023/03/20 11:07:21;;;;;;;0.90;0.52;;;11.60;99.90;;;;;;5053784;28;20056;-37
2023/03/20 11:10:09;;;;;;;0.75;0.70;;;11.50;99.90;;;;;;5052768;28;20492;-39
2023/03/20 11:12:41;;;;;;;0.88;0.50;;;11.50;99.90;;;;;;5053636;28;20037;-35
2023/03/20 11:15:24;;;;;;;0.60;0.45;;;11.60;99.90;;;;;;5053491;28;20460;-38
2023/03/20 11:17:56;;;;;;;1.25;0.70;;;11.50;99.90;;;;;;5053476;28;20021;-36
2023/03/20 11:20:22;;;;;;;1.35;0.60;;;11.50;99.90;;;;;;5051849;28;20028;-36
2023/03/20 11:22:49;;;;;;;0.63;0.52;;;11.50;99.90;;;;;;5053234;28;20036;-39
2023/03/20 11:25:31;;;;;;;0.63;0.43;;;11.50;99.90;;;;;;5053063;28;20459;-36
2023/03/20 11:27:57;;;;;;;0.80;0.55;;;11.50;99.90;;;;;;5052219;28;20029;-40
2023/03/20 11:30:23;;;;;;;0.93;0.40;;;11.50;99.90;;;;;;5053002;28;20028;-38
2023/03/20 11:32:53;;;;;;;0.55;0.45;;;11.50;99.90;;;;;;5053702;28;20039;-37
2023/03/20 11:35:25;;;;;;;0.60;0.50;;;11.50;99.90;;;;;;5053155;28;20110;-41
2023/03/20 11:37:53;;;;;;;0.88;0.68;;;11.50;99.90;;;;;;5051552;28;20063;-40
2023/03/20 11:40:24;;;;;;;0.82;0.60;;;11.50;99.90;;;;;;5053399;28;20025;-39
2023/03/20 11:43:00;;;;;;;0.98;0.60;;;11.50;99.90;;;;;;5054345;28;20028;-38
2023/03/20 11:45:32;;;;;;;1.05;0.50;;;11.50;99.90;;;;;;5053024;28;20020;-39
2023/03/20 11:48:00;;;;;;;0.57;0.40;;;11.50;99.90;;;;;;5053060;28;20021;-39
2023/03/20 11:50:44;;;;;;;0.63;0.57;;;11.50;99.90;;;;;;5053038;28;20033;-40
2023/03/20 11:53:31;;;;;;;0.70;0.60;;;11.50;99.90;;;;;;5051702;28;20430;-39
2023/03/20 11:56:25;;;;;;;0.93;0.60;;;11.50;99.90;;;;;;5052088;28;20097;-39
2023/03/20 11:59:05;;;;;;;0.82;0.60;;;11.50;99.90;;;;;;5051898;28;20100;-35
2023/03/20 12:01:45;;;;;;;0.90;0.60;;;11.50;99.90;;;;;;5051862;28;20041;-36
2023/03/20 12:04:26;;;;;;;0.77;0.70;;;11.50;99.90;;;;;;5052791;28;20057;-39
2023/03/20 12:07:01;;;;;;;1.05;0.70;;;11.50;99.90;;;;;;5051852;28;20104;-40
2023/03/20 12:09:39;;;;;;;0.70;0.60;;;11.50;99.90;;;;;;5053234;28;20029;-36
2023/03/20 12:12:41;;;;;;;1.30;0.63;;;11.50;99.90;;;;;;5052832;28;20025;-41
2023/03/20 12:15:07;;;;;;;0.73;0.60;;;11.50;99.90;;;;;;5051903;28;20036;-36
2023/03/20 12:18:06;;;;;;;0.80;0.63;;;11.50;99.90;;;;;;5051279;28;20379;-36
2023/03/20 12:20:52;;;;;;;0.68;0.52;;;11.50;99.90;;;;;;5047184;28;20044;-36
2023/03/20 12:23:33;;;;;;;0.82;0.70;;;11.50;99.90;;;;;;5055602;28;20033;-36
2023/03/20 12:26:10;;;;;;;1.55;0.80;;;11.60;99.90;;;;;;5055300;28;20033;-36
2023/03/20 12:28:45;;;;;;;0.40;0.40;;;11.60;99.90;;;;;;5056593;28;20033;-37
2023/03/20 12:31:34;;;;;;;1.42;0.68;;;11.60;99.90;;;;;;5056711;28;20035;-40
2023/03/20 12:34:11;;;;;;;0.52;0.50;;;11.60;99.90;;;;;;5055804;28;20096;-38
2023/03/20 12:36:40;;;;;;;1.17;0.70;;;11.60;99.90;;;;;;5055983;28;20503;-39
2023/03/20 12:39:16;;;;;;;1.00;0.60;;;11.60;99.90;;;;;;5056114;28;20056;-40
2023/03/20 12:42:13;;;;;;;0.90;0.60;;;11.60;99.90;;;;;;5056752;28;20036;-36
2023/03/20 12:44:47;;;;;;;0.65;0.50;;;11.50;99.90;;;;;;5055667;28;20071;-36
2023/03/20 12:47:23;;;;;;;0.70;0.65;;;11.50;99.90;;;;;;5056093;28;20031;-39
2023/03/20 12:50:32;;;;;;;0.77;0.57;;;11.50;99.90;;;;;;5055479;28;20028;-38
2023/03/20 12:53:34;;;;;;;1.13;0.60;;;11.50;99.90;;;;;;5035239;28;20033;-38
2023/03/20 12:56:15;;;;;;;0.60;0.52;;;11.50;99.90;;;;;;5047885;28;20029;-36
2023/03/20 12:58:53;;;;;;;0.75;0.60;;;11.50;99.90;;;;;;5056745;28;20381;-40
2023/03/20 13:01:36;;;;;;;0.65;0.50;;;11.50;99.90;;;;;;5055515;28;20040;-36
2023/03/20 13:04:11;;;;;;;0.98;0.65;;;11.50;99.90;;;;;;5054503;28;20029;-39
2023/03/20 13:06:54;;;;;;;0.73;0.52;;;11.50;99.90;;;;;;5055828;28;20021;-39
2023/03/20 13:09:25;;;;;;;0.75;0.68;;;11.50;99.90;;;;;;5056772;28;20025;-36
2023/03/20 13:11:57;;;;;;;0.98;0.45;;;11.50;99.90;;;;;;5056266;28;20028;-36